Time;durP1;ratioP1;P1;durP2;ratioP2;P2;SDS_P1;SDS_P2;PMS_P1;PMS_P2;Temp;Humidity;BMP_temperature;BMP_pressure;BME280_temperature;BME280_humidity;BME280_pressure;Samples;Min_cycle;Max_cycle;Signal;HPM_P1;HPM_P2
2023/06/09 00:01:53;;;;;;;9.60;8.80;;;17.30;1.00;;;;;;5141353;27;20460;-52
2023/06/09 00:04:20;;;;;;;9.40;8.60;;;17.30;1.00;;;;;;5141092;27;20183;-50
2023/06/09 00:06:46;;;;;;;10.53;9.47;;;17.20;1.00;;;;;;5141689;27;20503;-51
2023/06/09 00:09:13;;;;;;;10.47;9.57;;;17.20;1.00;;;;;;5132919;27;20900;-50
2023/06/09 00:11:38;;;;;;;9.40;8.60;;;17.00;1.00;;;;;;5119994;28;20422;-50
2023/06/09 00:14:04;;;;;;;9.33;8.43;;;16.90;46.70;;;;;;5120629;28;20467;-50
2023/06/09 00:16:30;;;;;;;9.17;8.27;;;16.80;99.90;;;;;;5120517;28;20199;-50
2023/06/09 00:18:57;;;;;;;9.07;8.37;;;16.80;99.90;;;;;;5120353;28;20450;-48
2023/06/09 00:21:25;;;;;;;8.60;7.87;;;16.80;99.90;;;;;;5120777;28;20191;-48
2023/06/09 00:23:52;;;;;;;9.60;8.80;;;16.80;99.90;;;;;;5102843;28;20429;-50
2023/06/09 00:26:18;;;;;;;9.40;8.60;;;16.80;99.90;;;;;;5120472;28;20425;-48
2023/06/09 00:28:43;;;;;;;9.20;8.40;;;16.80;99.90;;;;;;5120099;28;20405;-47
2023/06/09 00:31:09;;;;;;;10.30;9.40;;;16.90;99.90;;;;;;5120108;28;20429;-49
2023/06/09 00:33:35;;;;;;;12.13;9.30;;;17.00;99.90;;;;;;5120212;28;20743;-49
2023/06/09 00:36:00;;;;;;;9.07;8.17;;;17.00;35.70;;;;;;5120315;28;20203;-47
2023/06/09 00:38:26;;;;;;;8.43;7.73;;;17.00;79.10;;;;;;5120513;28;20180;-48
2023/06/09 00:40:52;;;;;;;8.70;7.90;;;17.00;92.20;;;;;;5120018;28;20196;-50
2023/06/09 00:43:18;;;;;;;11.47;10.27;;;17.00;63.00;;;;;;5119528;28;20518;-48
2023/06/09 00:45:44;;;;;;;9.20;8.37;;;17.00;54.10;;;;;;5119507;28;20457;-47
2023/06/09 00:48:09;;;;;;;9.67;8.87;;;17.00;34.60;;;;;;5118845;28;20188;-48
2023/06/09 00:50:36;;;;;;;10.30;9.40;;;17.00;1.00;;;;;;5100432;28;20281;-48
2023/06/09 00:53:03;;;;;;;9.40;8.60;;;17.00;1.00;;;;;;5118538;28;20215;-50
2023/06/09 00:55:29;;;;;;;10.10;9.30;;;16.90;19.60;;;;;;5118611;28;20433;-50
2023/06/09 00:57:55;;;;;;;10.13;9.23;;;16.90;47.50;;;;;;5100336;28;20842;-47
2023/06/09 01:00:28;;;;;;;9.37;8.57;;;16.90;99.90;;;;;;5100745;28;20496;-48
2023/06/09 01:03:00;;;;;;;10.33;9.43;;;16.90;90.50;;;;;;5119623;28;20695;-49
2023/06/09 01:05:36;;;;;;;10.47;9.47;;;16.90;27.70;;;;;;5120152;28;20398;-49
2023/06/09 01:08:23;;;;;;;9.53;8.73;;;16.90;23.80;;;;;;5119494;28;20417;-47
2023/06/09 01:11:20;;;;;;;10.03;9.10;;;16.80;1.00;;;;;;5119837;28;20420;-47
2023/06/09 01:14:00;;;;;;;10.03;9.20;;;16.70;1.00;;;;;;5119464;28;20461;-51
2023/06/09 01:16:40;;;;;;;8.90;8.10;;;16.70;99.90;;;;;;5101589;28;20421;-47
2023/06/09 01:19:11;;;;;;;9.80;8.80;;;16.60;23.00;;;;;;5119572;28;20835;-48
2023/06/09 01:21:45;;;;;;;10.07;9.07;;;16.40;99.90;;;;;;5101161;28;20514;-49
2023/06/09 01:24:45;;;;;;;9.50;8.70;;;16.40;99.90;;;;;;5101260;28;20493;-47
2023/06/09 01:27:12;;;;;;;11.20;10.10;;;16.40;99.90;;;;;;5102220;28;20418;-48
2023/06/09 01:29:40;;;;;;;8.70;8.00;;;16.40;99.90;;;;;;5101043;28;20527;-47
2023/06/09 01:32:07;;;;;;;10.47;9.40;;;16.40;99.90;;;;;;5101043;28;20497;-47
2023/06/09 01:34:33;;;;;;;9.10;8.40;;;16.40;99.90;;;;;;5101324;28;20474;-47
2023/06/09 01:36:59;;;;;;;9.47;8.70;;;16.50;99.90;;;;;;5118944;28;20863;-47
2023/06/09 01:39:26;;;;;;;11.27;10.17;;;16.50;99.90;;;;;;5119026;28;20271;-46
2023/06/09 01:41:52;;;;;;;10.27;9.40;;;16.50;99.90;;;;;;5101149;28;20425;-49
2023/06/09 01:44:18;;;;;;;10.47;9.67;;;16.40;99.90;;;;;;5118908;28;20485;-48
2023/06/09 01:46:44;;;;;;;11.70;10.50;;;16.40;99.90;;;;;;5119071;28;20223;-49
2023/06/09 01:49:27;;;;;;;9.97;9.17;;;16.30;99.90;;;;;;5118873;28;20211;-46
2023/06/09 01:51:58;;;;;;;10.10;9.30;;;16.20;99.90;;;;;;5099905;28;20513;-49
2023/06/09 01:54:31;;;;;;;10.17;9.27;;;16.20;1.00;;;;;;5100215;28;20919;-48
2023/06/09 01:57:05;;;;;;;10.03;9.20;;;16.20;99.90;;;;;;5118111;28;20822;-48
2023/06/09 01:59:53;;;;;;;10.17;9.37;;;16.30;99.90;;;;;;5100704;28;20417;-47
2023/06/09 02:02:20;;;;;;;11.33;10.33;;;16.30;99.90;;;;;;5100068;28;20490;-48
2023/06/09 02:04:46;;;;;;;11.50;10.50;;;16.30;99.90;;;;;;5100730;28;20401;-49
2023/06/09 02:07:16;;;;;;;10.07;9.27;;;16.20;99.90;;;;;;5100471;28;20425;-49
2023/06/09 02:09:45;;;;;;;9.50;8.70;;;16.10;1.00;;;;;;5100569;28;20426;-48
2023/06/09 02:12:11;;;;;;;10.87;9.93;;;16.00;1.00;;;;;;5118259;28;20426;-47
2023/06/09 02:14:36;;;;;;;10.37;9.40;;;16.00;1.00;;;;;;5118070;28;20452;-47
2023/06/09 02:17:03;;;;;;;10.93;9.83;;;16.10;1.00;;;;;;5118238;28;20172;-48
2023/06/09 02:19:30;;;;;;;10.13;9.33;;;16.10;1.00;;;;;;5118033;28;20180;-48
2023/06/09 02:21:57;;;;;;;10.27;9.33;;;16.00;1.00;;;;;;5118020;28;20421;-49
2023/06/09 02:24:27;;;;;;;10.97;9.97;;;16.00;1.00;;;;;;5118369;28;20434;-48
2023/06/09 02:26:56;;;;;;;10.77;9.87;;;16.00;1.00;;;;;;5117989;28;20425;-47
2023/06/09 02:29:25;;;;;;;11.50;10.40;;;16.00;1.00;;;;;;5117721;28;20414;-50
2023/06/09 02:31:52;;;;;;;11.00;9.90;;;15.90;1.00;;;;;;5116499;28;20405;-49
2023/06/09 02:34:19;;;;;;;10.80;9.90;;;15.70;1.00;;;;;;5116466;28;20791;-47
2023/06/09 02:36:45;;;;;;;10.73;9.83;;;15.60;1.00;;;;;;5116014;28;20774;-48
2023/06/09 02:39:11;;;;;;;10.60;9.70;;;15.60;99.90;;;;;;5116666;28;20523;-49
2023/06/09 02:41:36;;;;;;;10.47;9.63;;;15.60;99.90;;;;;;5098369;28;21041;-47
2023/06/09 02:44:02;;;;;;;9.70;8.90;;;15.60;99.90;;;;;;5116623;28;20195;-48
2023/06/09 02:46:29;;;;;;;11.40;10.30;;;15.60;99.90;;;;;;5116962;28;20270;-47
2023/06/09 02:48:57;;;;;;;10.37;9.47;;;15.70;31.30;;;;;;5116391;28;20588;-47
2023/06/09 02:51:23;;;;;;;10.90;10.00;;;15.80;28.60;;;;;;5117705;28;20723;-48
2023/06/09 02:53:48;;;;;;;11.20;10.10;;;15.80;1.00;;;;;;5117307;28;20457;-47
2023/06/09 02:56:14;;;;;;;10.63;9.63;;;15.90;1.00;;;;;;5117442;28;20187;-49
2023/06/09 02:58:39;;;;;;;10.67;9.67;;;15.90;1.00;;;;;;5117391;28;20202;-47
2023/06/09 03:01:07;;;;;;;11.87;10.87;;;15.90;1.00;;;;;;5116481;28;20401;-48
2023/06/09 03:03:34;;;;;;;10.47;9.57;;;15.90;1.00;;;;;;5116501;28;20279;-48
2023/06/09 03:06:00;;;;;;;10.97;10.10;;;15.80;1.00;;;;;;5098720;28;20433;-49
2023/06/09 03:08:25;;;;;;;10.10;9.20;;;15.70;1.00;;;;;;5115800;28;20423;-47
2023/06/09 03:10:52;;;;;;;11.03;10.03;;;15.60;1.00;;;;;;5116480;28;20203;-48
2023/06/09 03:13:18;;;;;;;10.53;9.63;;;15.60;1.00;;;;;;5116285;28;20241;-49
2023/06/09 03:15:44;;;;;;;9.47;8.70;;;15.60;32.50;;;;;;5117169;28;20524;-46
2023/06/09 03:18:09;;;;;;;10.60;9.80;;;15.60;99.90;;;;;;5117334;28;20191;-50
2023/06/09 03:20:36;;;;;;;11.93;10.93;;;15.60;1.00;;;;;;5116345;28;20176;-48
2023/06/09 03:23:02;;;;;;;10.33;9.47;;;15.60;50.70;;;;;;5116587;28;20195;-47
2023/06/09 03:25:30;;;;;;;10.90;10.00;;;15.60;1.00;;;;;;5116857;28;20437;-48
2023/06/09 03:27:56;;;;;;;10.97;10.03;;;15.60;1.00;;;;;;5116077;28;20460;-47
2023/06/09 03:30:22;;;;;;;10.73;9.73;;;15.60;1.00;;;;;;5116631;28;20520;-48
2023/06/09 03:32:47;;;;;;;10.20;9.37;;;15.70;1.00;;;;;;5118089;28;20225;-47
2023/06/09 03:35:13;;;;;;;9.40;8.53;;;15.70;1.00;;;;;;5120317;28;20179;-45
2023/06/09 03:37:39;;;;;;;10.37;9.50;;;15.70;1.00;;;;;;5117593;28;20589;-47
2023/06/09 03:40:05;;;;;;;10.07;9.17;;;15.80;1.00;;;;;;5098997;28;20830;-49
2023/06/09 03:42:31;;;;;;;11.40;10.30;;;15.80;1.00;;;;;;5116782;28;20561;-46
2023/06/09 03:44:58;;;;;;;10.43;9.47;;;15.90;1.00;;;;;;5111506;28;20481;-49
2023/06/09 03:47:24;;;;;;;9.30;8.50;;;15.90;1.00;;;;;;5096804;28;20293;-47
2023/06/09 03:49:50;;;;;;;10.67;9.57;;;15.90;1.00;;;;;;5096415;28;20411;-48
2023/06/09 03:52:16;;;;;;;12.30;11.20;;;16.00;99.90;;;;;;5096237;28;20441;-47
2023/06/09 03:54:41;;;;;;;11.13;10.10;;;15.90;99.90;;;;;;5094361;28;20744;-48
2023/06/09 03:57:07;;;;;;;11.00;10.10;;;15.80;1.00;;;;;;5094742;28;20185;-50
2023/06/09 03:59:33;;;;;;;11.50;10.40;;;15.60;1.00;;;;;;5077866;28;20223;-50
2023/06/09 04:01:58;;;;;;;12.10;11.10;;;15.50;1.00;;;;;;5096364;28;20184;-47
2023/06/09 04:04:24;;;;;;;10.57;9.67;;;15.40;99.90;;;;;;5095148;28;20706;-47
2023/06/09 04:06:50;;;;;;;10.23;9.40;;;15.30;99.90;;;;;;5093937;28;20206;-49
2023/06/09 04:09:15;;;;;;;10.80;9.90;;;15.40;1.00;;;;;;5094200;28;20200;-48
2023/06/09 04:11:41;;;;;;;11.57;10.47;;;15.50;99.90;;;;;;5092887;28;20684;-47
2023/06/09 04:14:08;;;;;;;10.73;9.83;;;15.60;99.90;;;;;;5093134;28;20246;-46
2023/06/09 04:16:33;;;;;;;11.70;10.60;;;15.70;99.90;;;;;;5092813;28;20536;-47
2023/06/09 04:18:59;;;;;;;11.67;10.53;;;15.80;1.00;;;;;;5094786;28;20525;-46
2023/06/09 04:21:24;;;;;;;11.37;10.37;;;15.90;1.00;;;;;;5097335;28;20192;-46
2023/06/09 04:23:50;;;;;;;11.93;10.93;;;15.90;1.00;;;;;;5097872;28;20559;-49
2023/06/09 04:26:16;;;;;;;11.07;10.07;;;15.90;1.00;;;;;;5097842;28;20593;-46
2023/06/09 04:28:43;;;;;;;10.37;9.53;;;15.80;1.00;;;;;;5097101;28;20238;-47
2023/06/09 04:31:10;;;;;;;11.60;10.60;;;15.80;1.00;;;;;;5097700;28;20438;-48
2023/06/09 04:33:36;;;;;;;11.17;10.20;;;15.90;1.00;;;;;;5098188;28;20614;-46
2023/06/09 04:36:03;;;;;;;11.80;10.70;;;16.00;1.00;;;;;;5080837;28;20709;-46
2023/06/09 04:38:32;;;;;;;11.13;10.23;;;16.00;1.00;;;;;;5098133;28;20415;-46
2023/06/09 04:41:01;;;;;;;10.93;9.93;;;16.00;1.00;;;;;;5097343;28;20407;-50
2023/06/09 04:43:28;;;;;;;11.70;10.53;;;15.90;1.00;;;;;;5097666;28;20461;-49
2023/06/09 04:45:55;;;;;;;10.90;10.00;;;15.90;1.00;;;;;;5092555;28;20886;-47
2023/06/09 04:48:21;;;;;;;12.17;10.97;;;15.80;1.40;;;;;;5118154;28;20448;-48
2023/06/09 04:50:47;;;;;;;12.40;11.30;;;15.70;99.90;;;;;;5121254;27;20432;-47
2023/06/09 04:53:15;;;;;;;10.53;9.53;;;15.70;99.90;;;;;;5136974;27;20518;-50
2023/06/09 04:55:43;;;;;;;11.97;10.97;;;15.70;99.90;;;;;;5137713;27;20532;-49
2023/06/09 04:58:09;;;;;;;12.20;11.10;;;15.70;99.90;;;;;;5138581;27;20425;-49
2023/06/09 05:00:35;;;;;;;12.20;11.20;;;15.70;99.90;;;;;;5121938;27;20468;-46
2023/06/09 05:03:01;;;;;;;12.93;11.73;;;15.70;99.90;;;;;;5136942;27;20259;-46
2023/06/09 05:05:27;;;;;;;11.50;10.50;;;15.80;1.00;;;;;;5119775;27;20516;-46
2023/06/09 05:07:52;;;;;;;11.70;10.80;;;15.80;1.00;;;;;;5137614;27;20788;-47
2023/06/09 05:10:18;;;;;;;12.40;11.30;;;15.90;1.00;;;;;;5119549;27;20216;-49
2023/06/09 05:12:44;;;;;;;11.90;10.90;;;16.10;1.00;;;;;;5138006;27;20247;-47
2023/06/09 05:15:10;;;;;;;11.90;10.87;;;16.20;1.00;;;;;;5137993;27;20186;-48
2023/06/09 05:17:41;;;;;;;11.77;10.67;;;16.40;99.90;;;;;;5137652;27;20423;-47
2023/06/09 05:20:10;;;;;;;10.93;10.03;;;16.50;99.90;;;;;;5137479;27;20734;-48
2023/06/09 05:22:37;;;;;;;12.33;11.30;;;16.60;99.90;;;;;;5118663;27;20476;-46
2023/06/09 05:25:03;;;;;;;10.53;9.63;;;16.80;99.90;;;;;;5136935;27;20428;-48
2023/06/09 05:27:29;;;;;;;11.23;10.33;;;16.90;99.90;;;;;;5137333;27;20834;-49
2023/06/09 05:29:56;;;;;;;10.50;9.53;;;17.00;99.90;;;;;;5137643;27;20861;-47
2023/06/09 05:32:21;;;;;;;11.83;10.83;;;17.20;1.00;;;;;;5118399;27;20420;-49
2023/06/09 05:34:47;;;;;;;9.57;8.77;;;17.40;1.00;;;;;;5139336;27;20421;-48
2023/06/09 05:37:15;;;;;;;11.97;9.00;;;17.50;1.00;;;;;;5137884;27;20187;-47
2023/06/09 05:39:40;;;;;;;10.43;9.53;;;17.60;1.00;;;;;;5138220;27;20605;-46
2023/06/09 05:42:08;;;;;;;10.50;9.60;;;17.70;1.00;;;;;;5138022;27;20476;-46
2023/06/09 05:44:33;;;;;;;10.30;9.30;;;17.70;99.90;;;;;;5137105;27;20522;-46
2023/06/09 05:46:59;;;;;;;9.73;8.83;;;17.80;99.90;;;;;;5118701;27;20413;-49
2023/06/09 05:49:25;;;;;;;10.17;9.33;;;17.90;99.90;;;;;;5137894;27;20522;-50
2023/06/09 05:51:50;;;;;;;8.67;7.97;;;18.00;99.90;;;;;;5145998;27;20237;-48
2023/06/09 05:54:17;;;;;;;10.80;9.90;;;18.10;99.90;;;;;;5140852;27;20214;-47
2023/06/09 05:56:44;;;;;;;10.23;9.43;;;18.10;99.90;;;;;;5120365;27;20252;-47
2023/06/09 05:59:10;;;;;;;10.80;9.90;;;18.20;8.60;;;;;;5137227;27;20405;-48
2023/06/09 06:01:36;;;;;;;10.60;9.70;;;18.30;1.00;;;;;;5119726;27;20425;-51
2023/06/09 06:04:01;;;;;;;13.27;12.17;;;18.40;1.00;;;;;;5136337;27;20428;-49
2023/06/09 06:06:27;;;;;;;11.07;10.07;;;18.40;1.00;;;;;;5136209;27;20179;-45
2023/06/09 06:08:53;;;;;;;11.77;10.67;;;18.60;1.00;;;;;;5136997;27;20273;-46
2023/06/09 06:11:20;;;;;;;11.60;10.40;;;18.80;1.00;;;;;;5136269;27;20240;-51
2023/06/09 06:13:46;;;;;;;12.47;11.37;;;19.00;1.00;;;;;;5137024;27;20723;-48
2023/06/09 06:16:12;;;;;;;12.50;11.50;;;19.10;1.00;;;;;;5137969;27;20478;-49
2023/06/09 06:18:37;;;;;;;10.63;9.80;;;19.20;99.90;;;;;;5140538;27;20190;-48
2023/06/09 06:21:03;;;;;;;10.00;9.10;;;19.40;99.90;;;;;;5137937;27;20495;-49
2023/06/09 06:23:29;;;;;;;8.83;8.13;;;19.60;99.90;;;;;;5116725;27;20179;-47
2023/06/09 06:25:55;;;;;;;9.57;8.77;;;19.70;99.90;;;;;;5096428;28;20290;-47
2023/06/09 06:28:21;;;;;;;9.60;8.80;;;19.90;99.90;;;;;;5133132;27;20869;-48
2023/06/09 06:30:47;;;;;;;10.07;9.20;;;20.10;99.90;;;;;;5135816;27;20202;-47
2023/06/09 06:33:13;;;;;;;19.57;11.73;;;20.30;99.90;;;;;;5136495;27;20468;-49
2023/06/09 06:35:39;;;;;;;17.30;9.93;;;20.50;99.90;;;;;;5134506;27;20179;-49
2023/06/09 06:38:05;;;;;;;12.00;9.87;;;20.60;46.30;;;;;;5135374;27;20439;-50
2023/06/09 06:40:31;;;;;;;12.23;9.23;;;20.70;16.70;;;;;;5136304;27;20228;-49
2023/06/09 06:42:56;;;;;;;10.43;8.17;;;20.90;1.00;;;;;;5135241;27;20439;-48
2023/06/09 06:45:22;;;;;;;9.70;8.70;;;21.00;1.00;;;;;;5134125;27;20226;-48
2023/06/09 06:47:49;;;;;;;9.17;8.27;;;21.10;1.00;;;;;;5133921;27;20365;-50
2023/06/09 06:50:15;;;;;;;7.60;7.00;;;21.20;1.00;;;;;;5135302;27;20844;-49
2023/06/09 06:52:41;;;;;;;7.90;7.23;;;21.40;1.00;;;;;;5134509;27;20624;-49
2023/06/09 06:55:08;;;;;;;9.47;8.37;;;21.40;1.00;;;;;;5135094;27;20493;-48
2023/06/09 06:57:38;;;;;;;7.33;6.60;;;21.50;1.00;;;;;;5133447;27;20767;-47
2023/06/09 07:00:13;;;;;;;8.83;7.10;;;21.70;1.00;;;;;;5134903;27;20432;-48
2023/06/09 07:02:39;;;;;;;7.23;6.63;;;21.80;1.00;;;;;;5133407;27;20443;-47
2023/06/09 07:05:09;;;;;;;7.20;6.60;;;21.80;1.00;;;;;;5134654;27;20828;-48
2023/06/09 07:07:34;;;;;;;6.83;6.30;;;21.90;1.00;;;;;;5132818;27;20431;-51
2023/06/09 07:10:03;;;;;;;7.33;6.73;;;22.00;1.00;;;;;;5135015;27;20448;-48
2023/06/09 07:12:29;;;;;;;7.20;6.60;;;22.00;1.00;;;;;;5135670;27;20180;-47
2023/06/09 07:14:56;;;;;;;8.27;7.57;;;22.10;1.00;;;;;;5136008;28;20440;-47
2023/06/09 07:17:21;;;;;;;7.57;6.87;;;22.10;1.00;;;;;;5118350;28;20486;-47
2023/06/09 07:19:47;;;;;;;6.80;6.20;;;22.10;1.00;;;;;;5135917;28;20523;-47
2023/06/09 07:22:13;;;;;;;6.90;6.30;;;22.10;1.00;;;;;;5134385;28;20193;-48
2023/06/09 07:24:38;;;;;;;6.77;6.17;;;22.30;1.00;;;;;;5135401;28;20593;-49
2023/06/09 07:27:05;;;;;;;21.03;6.27;;;22.50;1.00;;;;;;5118116;28;20594;-48
2023/06/09 07:29:31;;;;;;;7.10;6.50;;;22.70;1.00;;;;;;5135935;28;20186;-48
2023/06/09 07:31:56;;;;;;;7.40;6.67;;;22.90;1.00;;;;;;5135889;28;20756;-50
2023/06/09 07:34:27;;;;;;;6.60;6.10;;;23.10;1.00;;;;;;5135744;28;20426;-48
2023/06/09 07:36:53;;;;;;;9.50;6.20;;;23.20;1.00;;;;;;5133889;28;20179;-50
2023/06/09 07:39:20;;;;;;;6.00;5.50;;;23.30;1.00;;;;;;5134874;28;20413;-50
2023/06/09 07:41:45;;;;;;;6.80;6.20;;;23.30;1.00;;;;;;5117364;28;20432;-51
2023/06/09 07:44:11;;;;;;;6.90;6.30;;;23.30;1.00;;;;;;5136570;28;20451;-53
2023/06/09 07:46:36;;;;;;;7.17;6.67;;;23.40;1.00;;;;;;5115609;28;20464;-49
2023/06/09 07:49:02;;;;;;;7.10;6.60;;;23.60;1.00;;;;;;5133185;28;20198;-43
2023/06/09 07:51:29;;;;;;;6.53;6.03;;;23.90;1.00;;;;;;5117804;28;20266;-42
2023/06/09 07:53:55;;;;;;;6.77;6.17;;;24.20;1.00;;;;;;5134893;27;20464;-43
2023/06/09 07:56:21;;;;;;;7.60;5.90;;;24.50;1.00;;;;;;5139712;27;20503;-44
2023/06/09 07:58:46;;;;;;;5.67;5.20;;;24.80;1.00;;;;;;5140064;27;20504;-41
2023/06/09 08:01:12;;;;;;;6.33;5.83;;;25.10;1.00;;;;;;5120750;27;20485;-40
2023/06/09 08:03:38;;;;;;;9.70;6.20;;;25.20;1.00;;;;;;5136923;27;20187;-43
2023/06/09 08:06:04;;;;;;;6.97;6.37;;;25.30;1.00;;;;;;5136370;27;20191;-43
2023/06/09 08:08:31;;;;;;;7.03;6.00;;;25.30;1.00;;;;;;5137472;27;20191;-42
2023/06/09 08:10:58;;;;;;;6.53;6.00;;;25.50;1.00;;;;;;5137115;27;20784;-41
2023/06/09 08:13:24;;;;;;;6.40;5.90;;;25.70;1.00;;;;;;5118353;27;20452;-41
2023/06/09 08:15:49;;;;;;;5.93;5.43;;;25.90;1.00;;;;;;5119431;27;20459;-42
2023/06/09 08:18:16;;;;;;;6.20;5.70;;;26.20;1.00;;;;;;5138330;27;20420;-44
2023/06/09 08:20:42;;;;;;;6.27;5.77;;;26.40;1.00;;;;;;5140521;27;20182;-43
2023/06/09 08:23:08;;;;;;;5.70;5.20;;;26.70;1.00;;;;;;5121336;27;20658;-43
2023/06/09 08:25:37;;;;;;;6.13;5.63;;;26.80;1.00;;;;;;5104273;27;20191;-43
2023/06/09 08:28:03;;;;;;;5.47;5.07;;;27.10;1.00;;;;;;5140313;27;20498;-42
2023/06/09 08:30:28;;;;;;;6.53;6.03;;;27.20;1.00;;;;;;5140273;27;20479;-42
2023/06/09 08:32:54;;;;;;;6.27;5.77;;;27.30;1.00;;;;;;5102606;27;20229;-42
2023/06/09 08:35:21;;;;;;;6.33;5.73;;;27.40;1.00;;;;;;5121924;27;20182;-43
2023/06/09 08:37:47;;;;;;;6.03;5.53;;;27.40;1.00;;;;;;5139703;27;20278;-42
2023/06/09 08:40:13;;;;;;;5.47;5.07;;;27.40;1.00;;;;;;5139023;27;20425;-43
2023/06/09 08:42:39;;;;;;;5.50;5.00;;;27.50;1.00;;;;;;5119529;27;20564;-42
2023/06/09 08:45:05;;;;;;;6.00;5.60;;;27.60;1.00;;;;;;5137665;27;20470;-43
2023/06/09 08:47:33;;;;;;;5.33;4.93;;;27.80;1.00;;;;;;5100350;27;20452;-42
2023/06/09 08:49:59;;;;;;;6.30;5.80;;;28.00;1.00;;;;;;5118625;27;20849;-44
2023/06/09 08:52:27;;;;;;;6.10;5.60;;;27.80;1.00;;;;;;5134885;27;20417;-41
2023/06/09 08:54:54;;;;;;;5.13;4.50;;;27.30;1.00;;;;;;5118774;27;20428;-42
2023/06/09 08:57:21;;;;;;;5.53;5.00;;;27.10;1.00;;;;;;5101032;27;20433;-41
2023/06/09 08:59:47;;;;;;;5.47;5.07;;;27.40;1.00;;;;;;5136227;27;20420;-43
2023/06/09 09:02:13;;;;;;;5.23;4.77;;;27.70;1.00;;;;;;5136753;27;20507;-44
2023/06/09 09:04:39;;;;;;;6.50;5.90;;;27.80;1.00;;;;;;5136567;27;20509;-43
2023/06/09 09:07:09;;;;;;;6.10;5.60;;;28.10;1.00;;;;;;5135830;27;20868;-43
2023/06/09 09:09:35;;;;;;;5.93;4.73;;;28.20;1.00;;;;;;5135353;27;20606;-43
2023/06/09 09:12:04;;;;;;;5.73;5.33;;;28.00;1.00;;;;;;5135511;27;20495;-42
2023/06/09 09:14:30;;;;;;;6.10;5.60;;;28.10;1.00;;;;;;5136703;27;20468;-41
2023/06/09 09:16:56;;;;;;;6.33;5.83;;;28.20;1.00;;;;;;5143982;27;20780;-41
2023/06/09 09:19:30;;;;;;;5.83;5.40;;;28.30;1.00;;;;;;5134169;27;20421;-43
2023/06/09 09:22:06;;;;;;;5.63;5.23;;;28.70;1.00;;;;;;5136502;27;20445;-42
2023/06/09 09:24:31;;;;;;;6.27;5.70;;;28.90;1.00;;;;;;5135554;27;20651;-42
2023/06/09 09:26:57;;;;;;;5.90;5.50;;;29.00;1.00;;;;;;5137963;27;20489;-44
2023/06/09 09:29:27;;;;;;;5.40;5.00;;;29.20;1.00;;;;;;5118740;27;20244;-46
2023/06/09 09:31:59;;;;;;;5.10;4.70;;;29.20;1.00;;;;;;5134367;27;20688;-43
2023/06/09 09:34:25;;;;;;;5.67;5.27;;;29.40;1.00;;;;;;5134099;27;20641;-42
2023/06/09 09:36:55;;;;;;;5.13;4.73;;;29.60;1.00;;;;;;5134990;27;20687;-43
2023/06/09 09:39:21;;;;;;;6.27;5.63;;;29.70;1.00;;;;;;5135687;27;20414;-45
2023/06/09 09:42:08;;;;;;;5.60;5.20;;;30.00;1.00;;;;;;5136208;27;20437;-43
2023/06/09 09:44:41;;;;;;;5.57;5.17;;;30.00;1.00;;;;;;5116837;27;20463;-45
2023/06/09 09:47:09;;;;;;;7.20;5.23;;;30.20;1.00;;;;;;5137344;27;20534;-43
2023/06/09 09:49:35;;;;;;;5.70;5.20;;;30.60;1.00;;;;;;5135980;27;20507;-43
2023/06/09 09:52:05;;;;;;;6.17;5.70;;;30.70;1.00;;;;;;5134891;27;20425;-44
2023/06/09 09:54:31;;;;;;;5.53;5.07;;;30.50;1.00;;;;;;5135382;27;20440;-44
2023/06/09 09:56:58;;;;;;;6.13;4.87;;;30.30;1.00;;;;;;5133070;27;20417;-43
2023/06/09 09:59:25;;;;;;;6.50;5.90;;;30.00;1.00;;;;;;5115150;27;20268;-45
2023/06/09 10:01:52;;;;;;;5.67;5.00;;;30.00;1.00;;;;;;5133039;27;20489;-43
2023/06/09 10:04:22;;;;;;;5.80;5.20;;;30.10;1.00;;;;;;5133730;27;20417;-44
2023/06/09 10:06:58;;;;;;;5.03;4.67;;;30.40;1.00;;;;;;5116392;27;20433;-44
2023/06/09 10:09:25;;;;;;;4.23;3.90;;;30.60;1.00;;;;;;5116426;27;20890;-43
2023/06/09 10:11:54;;;;;;;5.10;4.70;;;30.90;1.00;;;;;;5135152;27;20451;-43
2023/06/09 10:14:20;;;;;;;5.10;4.70;;;31.00;1.00;;;;;;5135586;27;20456;-47
2023/06/09 10:16:47;;;;;;;5.10;4.70;;;31.10;1.00;;;;;;5135214;27;20728;-45
2023/06/09 10:19:14;;;;;;;5.80;5.20;;;31.40;1.00;;;;;;5136259;27;20708;-44
2023/06/09 10:21:41;;;;;;;4.70;4.30;;;31.40;1.00;;;;;;5135624;27;20489;-45
2023/06/09 10:24:07;;;;;;;4.87;4.50;;;31.30;1.00;;;;;;5133014;27;20477;-44
2023/06/09 10:26:35;;;;;;;4.43;4.10;;;31.30;1.00;;;;;;5135855;27;20695;-42
2023/06/09 10:29:00;;;;;;;5.47;5.07;;;31.30;1.00;;;;;;5117060;27;20404;-43
2023/06/09 10:31:26;;;;;;;5.23;4.83;;;31.50;1.00;;;;;;5115954;27;20508;-43
2023/06/09 10:33:53;;;;;;;4.43;4.03;;;31.90;1.00;;;;;;5131799;27;20242;-45
2023/06/09 10:36:18;;;;;;;5.20;4.80;;;31.70;1.00;;;;;;5114405;27;20202;-44
2023/06/09 10:38:47;;;;;;;5.37;4.97;;;31.40;1.00;;;;;;5132380;27;20805;-42
2023/06/09 10:41:20;;;;;;;4.80;4.40;;;31.10;1.00;;;;;;5132015;27;20549;-43
2023/06/09 10:44:18;;;;;;;4.60;4.30;;;31.10;1.00;;;;;;5132475;27;20395;-42
2023/06/09 10:46:46;;;;;;;4.90;4.50;;;31.60;1.00;;;;;;5135417;27;20472;-42
2023/06/09 10:49:34;;;;;;;4.70;4.40;;;32.00;1.00;;;;;;5133902;27;20616;-45
2023/06/09 10:52:00;;;;;;;5.10;4.70;;;32.50;1.00;;;;;;5134629;27;20842;-43
2023/06/09 10:54:26;;;;;;;5.70;5.20;;;33.10;1.00;;;;;;5132647;27;20461;-45
2023/06/09 10:56:57;;;;;;;5.00;4.60;;;33.40;1.00;;;;;;5116006;27;20255;-44
2023/06/09 10:59:25;;;;;;;4.20;3.90;;;33.70;1.00;;;;;;5134077;27;20554;-44
2023/06/09 11:02:03;;;;;;;4.50;4.20;;;33.80;1.00;;;;;;5134691;27;20714;-47
2023/06/09 11:04:37;;;;;;;5.17;4.77;;;33.90;1.00;;;;;;5136186;27;20501;-45
2023/06/09 11:07:24;;;;;;;4.80;4.40;;;34.20;1.00;;;;;;5135136;27;20759;-45
2023/06/09 11:09:49;;;;;;;5.03;4.63;;;34.40;1.00;;;;;;5134604;27;20421;-45
2023/06/09 11:12:42;;;;;;;5.20;4.80;;;34.50;1.00;;;;;;5135409;27;20666;-43
2023/06/09 11:15:15;;;;;;;5.30;4.90;;;34.60;1.00;;;;;;5136319;27;20191;-42
2023/06/09 11:17:41;;;;;;;5.23;4.83;;;34.40;1.00;;;;;;5136397;28;20375;-44
2023/06/09 11:20:09;;;;;;;5.50;5.10;;;34.30;1.00;;;;;;5133786;28;20592;-44
2023/06/09 11:22:59;;;;;;;5.53;5.13;;;34.40;1.00;;;;;;5134604;28;20395;-44
2023/06/09 11:25:26;;;;;;;5.40;5.00;;;34.60;1.00;;;;;;5134306;28;20407;-44
2023/06/09 11:27:55;;;;;;;5.90;5.50;;;34.70;1.00;;;;;;5135054;27;20424;-45
2023/06/09 11:30:23;;;;;;;5.43;5.00;;;35.00;1.00;;;;;;5136053;27;20531;-45
2023/06/09 11:32:57;;;;;;;5.30;4.80;;;34.60;1.00;;;;;;5135372;27;20427;-45
2023/06/09 11:35:31;;;;;;;5.00;4.70;;;34.70;1.00;;;;;;5137805;27;20394;-45
2023/06/09 11:38:07;;;;;;;5.17;4.77;;;34.30;1.00;;;;;;5138770;27;20390;-46
2023/06/09 11:40:48;;;;;;;5.70;5.30;;;33.60;1.00;;;;;;5119641;27;20436;-43
2023/06/09 11:43:13;;;;;;;5.53;5.13;;;32.90;1.00;;;;;;5137931;27;20424;-43
2023/06/09 11:45:39;;;;;;;5.00;4.60;;;32.30;1.00;;;;;;5138164;27;20687;-46
2023/06/09 11:48:06;;;;;;;5.30;4.90;;;32.60;1.00;;;;;;5135007;27;20553;-45
2023/06/09 11:50:36;;;;;;;5.00;4.60;;;32.90;1.00;;;;;;5114894;27;20171;-45
2023/06/09 11:53:07;;;;;;;4.77;4.37;;;33.20;1.00;;;;;;5132569;27;20555;-44
2023/06/09 11:55:33;;;;;;;5.17;4.70;;;33.40;1.00;;;;;;5135587;27;20394;-46
2023/06/09 11:57:59;;;;;;;4.80;4.50;;;33.80;1.00;;;;;;5135820;27;20395;-44
2023/06/09 12:00:26;;;;;;;5.03;4.73;;;33.50;1.00;;;;;;5117836;27;20422;-43
2023/06/09 12:02:53;;;;;;;4.50;4.10;;;33.50;1.00;;;;;;5138227;27;20387;-43
2023/06/09 12:05:19;;;;;;;5.10;4.70;;;34.00;1.00;;;;;;5138467;27;20516;-44
2023/06/09 12:07:46;;;;;;;4.53;4.17;;;34.60;1.00;;;;;;5138600;27;20817;-44
2023/06/09 12:10:17;;;;;;;4.53;4.13;;;35.00;1.00;;;;;;5120067;27;20454;-42
2023/06/09 12:12:50;;;;;;;4.50;4.10;;;35.20;1.00;;;;;;5120707;27;20778;-44
2023/06/09 12:15:18;;;;;;;4.80;4.43;;;35.40;1.00;;;;;;5136194;27;20379;-43
2023/06/09 12:17:46;;;;;;;4.40;4.10;;;35.60;1.00;;;;;;5137748;27;20383;-45
2023/06/09 12:20:27;;;;;;;4.87;4.47;;;35.30;1.00;;;;;;5136706;27;20427;-43
2023/06/09 12:22:54;;;;;;;4.00;3.70;;;34.60;1.00;;;;;;5119137;27;20809;-48
2023/06/09 12:25:27;;;;;;;4.80;4.40;;;34.20;1.00;;;;;;5135960;27;20398;-44
2023/06/09 12:28:12;;;;;;;5.20;4.70;;;34.10;1.00;;;;;;5139429;27;20407;-44
2023/06/09 12:30:42;;;;;;;4.43;4.13;;;34.30;1.00;;;;;;5137923;27;20394;-43
2023/06/09 12:33:09;;;;;;;4.27;3.97;;;34.90;1.00;;;;;;5136003;27;20459;-46
2023/06/09 12:35:39;;;;;;;4.20;3.90;;;35.50;1.00;;;;;;5119946;27;20510;-45
2023/06/09 12:38:31;;;;;;;4.00;3.70;;;35.90;1.00;;;;;;5137935;27;20775;-43
2023/06/09 12:41:06;;;;;;;4.20;3.90;;;36.20;1.00;;;;;;5117963;27;20403;-43
2023/06/09 12:43:45;;;;;;;4.37;4.07;;;35.60;1.00;;;;;;5117917;27;20730;-44
2023/06/09 12:46:11;;;;;;;4.30;4.00;;;35.70;1.00;;;;;;5122216;27;20487;-44
2023/06/09 12:48:56;;;;;;;4.30;4.00;;;36.20;1.00;;;;;;5105109;27;20505;-45
2023/06/09 12:51:22;;;;;;;5.17;4.37;;;36.30;1.00;;;;;;5121911;27;20697;-44
2023/06/09 12:53:56;;;;;;;4.60;4.10;;;35.40;1.00;;;;;;5119854;27;20435;-44